createdAt,value
2018-07-05T00:00:03.320Z,0
2018-07-05T00:05:02.515Z,0
2018-07-05T00:10:03.241Z,0
2018-07-05T00:15:02.648Z,0
2018-07-05T00:20:03.040Z,0
2018-07-05T00:25:02.454Z,0
2018-07-05T00:30:03.067Z,0
2018-07-05T00:35:02.564Z,0
2018-07-05T00:40:03.008Z,0
2018-07-05T00:45:02.439Z,0
2018-07-05T00:50:03.031Z,0
2018-07-05T00:55:02.514Z,0
2018-07-05T01:00:02.981Z,0
2018-07-05T01:05:02.456Z,0
2018-07-05T01:10:03.032Z,0
2018-07-05T01:15:02.532Z,0
2018-07-05T01:20:03.012Z,0
2018-07-05T01:25:02.500Z,0
2018-07-05T01:30:02.968Z,0
2018-07-05T01:35:02.437Z,0
2018-07-05T01:40:03.015Z,0
2018-07-05T01:45:02.453Z,0
2018-07-05T01:50:02.956Z,0
2018-07-05T01:55:02.339Z,0
2018-07-05T02:00:02.820Z,0
2018-07-05T02:05:03.414Z,0
2018-07-05T02:10:03.233Z,0
2018-07-05T02:15:02.711Z,0
2018-07-05T02:20:03.210Z,0
2018-07-05T02:25:02.671Z,0
2018-07-05T02:30:03.139Z,0
2018-07-05T02:35:02.672Z,1
2018-07-05T02:40:03.139Z,2
2018-07-05T02:45:02.650Z,4
2018-07-05T02:50:03.076Z,8
2018-07-05T02:55:02.500Z,14
2018-07-05T03:00:03.165Z,25
2018-07-05T03:05:02.593Z,40
2018-07-05T03:10:03.079Z,54
2018-07-05T03:15:02.579Z,66
2018-07-05T03:20:03.078Z,92
2018-07-05T03:25:02.562Z,132
2018-07-05T03:30:03.090Z,253
2018-07-05T03:35:02.556Z,341
2018-07-05T03:40:03.113Z,446
2018-07-05T03:45:02.567Z,481
2018-07-05T03:50:03.025Z,519
2018-07-05T03:55:02.453Z,650
2018-07-05T04:00:02.879Z,911
2018-07-05T04:05:02.380Z,1000
2018-07-05T04:10:02.903Z,1000
2018-07-05T04:15:03.342Z,1000
2018-07-05T04:20:02.772Z,1000
2018-07-05T04:25:03.289Z,1000
2018-07-05T04:30:02.672Z,1000
2018-07-05T04:35:03.091Z,1000
2018-07-05T04:40:02.596Z,2000
2018-07-05T04:45:03.112Z,2000
2018-07-05T04:50:02.642Z,2000
2018-07-05T04:55:03.140Z,2000
2018-07-05T05:00:02.502Z,2000
2018-07-05T05:05:03.040Z,3000
2018-07-05T05:10:02.549Z,3000
2018-07-05T05:15:03.115Z,3000
2018-07-05T05:20:03.011Z,3000
2018-07-05T05:25:02.472Z,3000
2018-07-05T05:30:03.174Z,4000
2018-07-05T05:35:02.950Z,5000
2018-07-05T05:40:02.443Z,5000
2018-07-05T05:45:02.814Z,5000
2018-07-05T05:50:03.252Z,5000
2018-07-05T05:55:02.691Z,5000
2018-07-05T06:00:03.323Z,5000
2018-07-05T06:05:02.755Z,5000
2018-07-05T06:10:03.240Z,5000
2018-07-05T06:15:02.705Z,5000
2018-07-05T06:20:03.161Z,5000
2018-07-05T06:25:02.567Z,5000
2018-07-05T06:30:03.004Z,6000
2018-07-05T06:35:02.501Z,5000
2018-07-05T06:40:03.001Z,5000
2018-07-05T06:45:02.417Z,6000
2018-07-05T06:50:02.899Z,6000
2018-07-05T06:55:03.347Z,6000
2018-07-05T07:00:02.770Z,7000
2018-07-05T07:05:03.184Z,8000
2018-07-05T07:10:02.670Z,8000
2018-07-05T07:15:03.085Z,8000
2018-07-05T07:20:02.522Z,8000
2018-07-05T07:25:03.002Z,9000
2018-07-05T07:30:02.500Z,9000
2018-07-05T07:35:03.142Z,10000
2018-07-05T07:40:02.689Z,10000
2018-07-05T07:45:03.117Z,12000
2018-07-05T07:50:02.637Z,25000
2018-07-05T07:55:03.082Z,25000
2018-07-05T08:00:02.715Z,13000
2018-07-05T08:05:02.350Z,10000
2018-07-05T08:10:02.851Z,29000
2018-07-05T08:15:03.352Z,32000
2018-07-05T08:20:03.076Z,32000
2018-07-05T08:25:02.488Z,33000
2018-07-05T08:30:02.942Z,33000
2018-07-05T08:35:02.404Z,44000
2018-07-05T08:40:02.924Z,39000
2018-07-05T08:45:02.456Z,31000
2018-07-05T08:50:02.905Z,36000
2018-07-05T08:55:02.567Z,41000
2018-07-05T09:00:03.011Z,36000
2018-07-05T09:05:02.428Z,40000
2018-07-05T09:10:02.951Z,39000
2018-07-05T09:15:02.409Z,39000
2018-07-05T09:20:02.895Z,37000
2018-07-05T09:25:02.415Z,46000
2018-07-05T09:30:02.874Z,44000
2018-07-05T09:35:03.289Z,45000
2018-07-05T09:40:02.786Z,47000
2018-07-05T09:45:03.229Z,39000
2018-07-05T09:50:02.607Z,48000
2018-07-05T09:55:03.141Z,27000
2018-07-05T10:05:03.201Z,43000
2018-07-05T10:10:02.616Z,54000
2018-07-05T10:15:03.129Z,52000
2018-07-05T10:20:02.557Z,50000
2018-07-05T10:25:02.983Z,48000
2018-07-05T10:30:02.341Z,49000
2018-07-05T10:35:03.220Z,48000
2018-07-05T10:40:02.736Z,45000
2018-07-05T10:45:03.186Z,46000
2018-07-05T10:50:02.610Z,49000
2018-07-05T10:55:03.090Z,47000
2018-07-05T11:00:02.577Z,47000
2018-07-05T11:05:03.148Z,46000
2018-07-05T11:10:02.678Z,47000
2018-07-05T11:15:03.177Z,48000
2018-07-05T11:20:02.613Z,47000
2018-07-05T11:25:03.092Z,47000
2018-07-05T11:30:02.533Z,47000
2018-07-05T11:35:03.024Z,47000
2018-07-05T11:40:02.530Z,48000
2018-07-05T11:45:03.019Z,47000
2018-07-05T11:50:02.485Z,41000
2018-07-05T11:55:02.967Z,47000
2018-07-05T12:00:02.393Z,47000
2018-07-05T12:05:02.916Z,41000
2018-07-05T12:10:02.420Z,43000
2018-07-05T12:20:02.539Z,46000
2018-07-05T12:25:02.940Z,47000
2018-07-05T12:30:02.424Z,45000
2018-07-05T12:35:03.081Z,47000
2018-07-05T12:40:02.549Z,47000
2018-07-05T12:45:03.108Z,12000
2018-07-05T12:50:02.517Z,40000
2018-07-05T12:55:03.009Z,45000
2018-07-05T13:00:02.509Z,41000
2018-07-05T13:05:02.931Z,17000
2018-07-05T13:10:02.457Z,34000
2018-07-05T13:15:02.889Z,39000
2018-07-05T13:20:02.374Z,41000
2018-07-05T13:25:02.854Z,41000
2018-07-05T13:30:03.228Z,41000
2018-07-05T13:35:02.674Z,41000
2018-07-05T13:40:03.162Z,36000
2018-07-05T13:45:02.649Z,36000
2018-07-05T13:50:03.134Z,34000
2018-07-05T13:55:02.514Z,34000
2018-07-05T14:00:03.144Z,36000
2018-07-05T14:05:02.650Z,15000
2018-07-05T14:10:03.231Z,14000
2018-07-05T14:15:02.630Z,31000
2018-07-05T14:20:03.148Z,34000
2018-07-05T14:25:02.853Z,9000
2018-07-05T14:30:02.587Z,9000
2018-07-05T14:35:03.094Z,30000
2018-07-05T14:40:02.545Z,9000
2018-07-05T14:45:02.901Z,30000
2018-07-05T14:50:03.328Z,31000
2018-07-05T14:55:02.749Z,12000
2018-07-05T15:00:03.101Z,11000
2018-07-05T15:05:02.526Z,13000
2018-07-05T15:10:03.005Z,13000
2018-07-05T15:15:02.486Z,25000
2018-07-05T15:20:02.948Z,19000
2018-07-05T15:25:03.316Z,28000
2018-07-05T15:30:02.684Z,24000
2018-07-05T15:35:03.115Z,22000
2018-07-05T15:40:02.591Z,21000
2018-07-05T15:45:03.026Z,21000
2018-07-05T15:50:02.460Z,20000
2018-07-05T15:55:02.909Z,19000
2018-07-05T16:00:02.438Z,18000
2018-07-05T16:05:02.961Z,4000
2018-07-05T16:10:02.719Z,19000
2018-07-05T16:15:03.214Z,5000
2018-07-05T16:20:02.799Z,4000
2018-07-05T16:25:03.242Z,6000
2018-07-05T16:30:02.696Z,16000
2018-07-05T16:35:03.205Z,15000
2018-07-05T16:40:02.747Z,14000
2018-07-05T16:45:03.177Z,14000
2018-07-05T16:50:02.641Z,13000
2018-07-05T16:55:03.122Z,13000
2018-07-05T17:00:02.565Z,12000
2018-07-05T17:05:03.083Z,12000
2018-07-05T17:10:02.517Z,11000
2018-07-05T17:15:02.933Z,11000
2018-07-05T17:20:02.475Z,10000
2018-07-05T17:25:02.968Z,10000
2018-07-05T17:30:02.420Z,10000
2018-07-05T17:35:02.877Z,9000
2018-07-05T17:40:03.299Z,9000
2018-07-05T17:45:02.676Z,9000
2018-07-05T17:50:03.094Z,8000
2018-07-05T17:55:02.551Z,8000
2018-07-05T18:00:03.054Z,7000
2018-07-05T18:05:02.519Z,7000
2018-07-05T18:10:03.048Z,6000
2018-07-05T18:15:02.484Z,6000
2018-07-05T18:20:02.978Z,5000
2018-07-05T18:25:02.448Z,5000
2018-07-05T18:30:02.880Z,2000
2018-07-05T18:35:03.312Z,4000
2018-07-05T18:40:02.808Z,2000
2018-07-05T18:45:03.294Z,1000
2018-07-05T18:50:02.793Z,1000
2018-07-05T18:55:03.316Z,1000
2018-07-05T19:00:02.753Z,1000
2018-07-05T19:05:03.198Z,1000
2018-07-05T19:10:02.725Z,723
2018-07-05T19:15:03.192Z,635
2018-07-05T19:20:02.584Z,607
2018-07-05T19:25:03.050Z,514
2018-07-05T19:30:02.622Z,458
2018-07-05T19:35:03.074Z,403
2018-07-05T19:40:02.636Z,347
2018-07-05T19:45:03.077Z,289
2018-07-05T19:50:02.541Z,195
2018-07-05T19:55:03.114Z,110
2018-07-05T20:00:03.325Z,84
2018-07-05T20:05:02.715Z,67
2018-07-05T20:10:03.200Z,48
2018-07-05T20:15:02.720Z,43
2018-07-05T20:20:02.617Z,31
2018-07-05T20:25:03.049Z,14
2018-07-05T20:30:02.806Z,7
2018-07-05T20:35:02.566Z,3
2018-07-05T20:40:03.088Z,2
2018-07-05T20:50:03.026Z,0
2018-07-05T20:55:02.449Z,0
2018-07-05T21:00:02.942Z,0
2018-07-05T21:05:02.403Z,0
2018-07-05T21:10:02.941Z,0
2018-07-05T21:15:02.358Z,0
2018-07-05T21:20:02.829Z,0
2018-07-05T21:25:03.388Z,0
2018-07-05T21:30:02.786Z,0
2018-07-05T21:35:03.207Z,0
2018-07-05T21:40:02.637Z,0
2018-07-05T21:45:03.000Z,0
2018-07-05T21:50:02.426Z,0
2018-07-05T21:55:02.917Z,0
2018-07-05T22:00:03.338Z,0
2018-07-05T22:10:02.588Z,0
2018-07-05T22:15:03.009Z,0
2018-07-05T22:20:02.544Z,0
2018-07-05T22:25:03.010Z,0
2018-07-05T22:30:02.441Z,0
2018-07-05T22:35:02.869Z,0
2018-07-05T22:40:03.389Z,0
2018-07-05T22:45:02.849Z,0
2018-07-05T22:50:03.273Z,0
2018-07-05T22:55:02.694Z,0
2018-07-05T23:00:03.128Z,0
2018-07-05T23:05:03.117Z,0
2018-07-05T23:10:02.586Z,0
2018-07-05T23:15:03.006Z,0
2018-07-05T23:20:02.413Z,0
2018-07-05T23:25:02.840Z,0
2018-07-05T23:30:03.294Z,0
2018-07-05T23:35:02.699Z,0
2018-07-05T23:40:03.106Z,0
2018-07-05T23:45:02.525Z,0
2018-07-05T23:50:03.027Z,0
2018-07-05T23:55:02.502Z,0
